createdAt,value
2023-08-11T00:01:21.404Z,99687.63
2023-08-11T00:02:54.763Z,99694.75
2023-08-11T00:04:28.313Z,99693.97
2023-08-11T00:06:02.362Z,99692.34
2023-08-11T00:07:35.395Z,99692.56
2023-08-11T00:09:10.163Z,99692.78
2023-08-11T00:10:42.358Z,99696.91
2023-08-11T00:12:15.706Z,99691.25
2023-08-11T00:13:48.025Z,99695.97
2023-08-11T00:15:21.686Z,99688.06
2023-08-11T00:16:54.957Z,99698.63
2023-08-11T00:18:29.911Z,99694.13
2023-08-11T00:20:07.568Z,99700.22
2023-08-11T00:21:39.834Z,99707.16
2023-08-11T00:23:13.100Z,99699.78
2023-08-11T00:24:45.599Z,99701.41
2023-08-11T00:26:18.819Z,99701.19
2023-08-11T00:27:51.496Z,99694.25
2023-08-11T00:29:25.422Z,99702.22
2023-08-11T00:30:58.033Z,99701.69
2023-08-11T00:32:31.419Z,99689.38
2023-08-11T00:34:04.967Z,99691.66
2023-08-11T00:35:39.592Z,99694.75
2023-08-11T00:37:12.075Z,99701.31
2023-08-11T00:38:46.283Z,99697.00
2023-08-11T00:40:18.689Z,99698.88
2023-08-11T00:41:51.900Z,99703.38
2023-08-11T00:43:24.238Z,99700.94
2023-08-11T00:44:59.546Z,99700.13
2023-08-11T00:46:31.725Z,99698.28
2023-08-11T00:48:08.040Z,99703.78
2023-08-11T00:49:40.422Z,99695.53
2023-08-11T00:51:17.689Z,99707.31
2023-08-11T00:52:51.384Z,99707.16
2023-08-11T00:54:26.338Z,99706.72
2023-08-11T00:55:58.806Z,99707.16
2023-08-11T00:57:32.706Z,99704.50
2023-08-11T00:59:05.790Z,99702.91
2023-08-11T01:00:40.266Z,99689.88
2023-08-11T01:02:14.591Z,99692.38
2023-08-11T01:03:49.177Z,99698.09
2023-08-11T01:05:21.723Z,99697.09
2023-08-11T01:07:04.880Z,99698.78
2023-08-11T01:08:46.652Z,99697.78
2023-08-11T01:10:30.232Z,99700.06
2023-08-11T01:12:09.799Z,99693.78
2023-08-11T01:13:50.432Z,99697.66
2023-08-11T01:15:27.733Z,99697.22
2023-08-11T01:17:04.055Z,99697.44
2023-08-11T01:18:36.610Z,99705.16
2023-08-11T01:20:13.224Z,99705.97
2023-08-11T01:21:49.869Z,99699.84
2023-08-11T01:23:25.634Z,99701.72
2023-08-11T01:24:59.073Z,99697.47
2023-08-11T01:26:31.633Z,99711.69
2023-08-11T01:28:05.208Z,99717.22
2023-08-11T01:29:38.927Z,99710.72
2023-08-11T01:31:12.362Z,99705.47
2023-08-11T01:32:46.246Z,99719.72
2023-08-11T01:34:20.941Z,99710.59
2023-08-11T01:35:53.195Z,99716.47
2023-08-11T01:37:26.431Z,99713.06
2023-08-11T01:39:00.193Z,99719.31
2023-08-11T01:40:33.480Z,99717.25
2023-08-11T01:42:06.944Z,99715.66
2023-08-11T01:43:42.239Z,99715.81
2023-08-11T01:45:16.914Z,99718.44
2023-08-11T01:46:51.123Z,99718.44
2023-08-11T01:48:24.665Z,99718.91
2023-08-11T01:49:59.109Z,99714.44
2023-08-11T01:51:31.985Z,99718.94
2023-08-11T01:53:05.541Z,99710.81
2023-08-11T01:54:39.473Z,99714.88
2023-08-11T01:56:13.866Z,99724.25
2023-08-11T01:57:57.583Z,99719.13
2023-08-11T01:59:33.162Z,99724.44
2023-08-11T02:01:05.490Z,99720.19
2023-08-11T02:02:39.714Z,99710.44
2023-08-11T02:04:14.119Z,99727.34
2023-08-11T02:05:46.592Z,99730.03
2023-08-11T02:07:19.962Z,99728.03
2023-08-11T02:08:52.214Z,99731.91
2023-08-11T02:10:27.230Z,99735.78
2023-08-11T02:11:59.512Z,99745.09
2023-08-11T02:13:34.109Z,99736.56
2023-08-11T02:15:08.131Z,99735.38
2023-08-11T02:16:41.572Z,99736.56
2023-08-11T02:18:15.572Z,99744.09
2023-08-11T02:19:48.130Z,99739.41
2023-08-11T02:21:22.255Z,99740.41
2023-08-11T02:22:57.103Z,99735.56
2023-08-11T02:24:30.315Z,99733.47
2023-08-11T02:26:04.490Z,99737.34
2023-08-11T02:27:37.994Z,99730.84
2023-08-11T02:29:11.403Z,99741.78
2023-08-11T02:30:44.632Z,99738.13
2023-08-11T02:32:18.797Z,99744.22
2023-08-11T02:33:52.156Z,99737.53
2023-08-11T02:35:24.645Z,99738.13
2023-08-11T02:36:57.892Z,99730.38
2023-08-11T02:38:30.235Z,99739.31
2023-08-11T02:40:04.524Z,99734.25
2023-08-11T02:41:38.249Z,99738.47
2023-08-11T02:43:12.277Z,99741.91
2023-08-11T02:44:44.619Z,99739.28
2023-08-11T02:46:17.960Z,99739.66
2023-08-11T02:47:51.293Z,99744.34
2023-08-11T02:49:24.494Z,99741.69
2023-08-11T02:50:56.899Z,99736.41
2023-08-11T02:52:30.103Z,99733.56
2023-08-11T02:54:02.706Z,99735.38
2023-08-11T02:55:36.170Z,99733.75
2023-08-11T02:57:09.925Z,99729.94
2023-08-11T02:58:43.330Z,99727.53
2023-08-11T03:00:16.400Z,99742.19
2023-08-11T03:01:50.311Z,99739.31
2023-08-11T03:03:22.818Z,99742.56
2023-08-11T03:04:56.213Z,99739.69
2023-08-11T03:06:29.770Z,99729.78
2023-08-11T03:08:03.110Z,99745.03
2023-08-11T03:09:36.543Z,99737.72
2023-08-11T03:11:10.335Z,99745.44
2023-08-11T03:12:44.089Z,99742.56
2023-08-11T03:14:18.349Z,99748.69
2023-08-11T03:15:53.685Z,99744.19
2023-08-11T03:17:26.665Z,99752.75
2023-08-11T03:19:00.956Z,99753.97
2023-08-11T03:20:34.161Z,99746.44
2023-08-11T03:22:06.948Z,99750.31
2023-08-11T03:23:40.366Z,99754.44
2023-08-11T03:25:16.285Z,99754.44
2023-08-11T03:26:48.671Z,99756.47
2023-08-11T03:28:23.541Z,99758.91
2023-08-11T03:29:56.263Z,99759.72
2023-08-11T03:31:30.149Z,99759.09
2023-08-11T03:33:04.728Z,99757.84
2023-08-11T03:34:50.749Z,99755.22
2023-08-11T03:36:24.050Z,99745.47
2023-08-11T03:37:56.400Z,99766.41
2023-08-11T03:39:29.749Z,99763.38
2023-08-11T03:41:04.165Z,99771.31
2023-08-11T03:42:37.355Z,99765.03
2023-08-11T03:44:11.178Z,99763.84
2023-08-11T03:45:44.522Z,99769.13
2023-08-11T03:47:20.912Z,99768.72
2023-08-11T03:48:55.101Z,99766.44
2023-08-11T03:50:27.877Z,99769.91
2023-08-11T03:52:01.222Z,99766.22
2023-08-11T03:53:34.657Z,99770.06
2023-08-11T03:55:10.971Z,99773.53
2023-08-11T03:56:46.030Z,99768.69
2023-08-11T03:58:19.270Z,99770.88
2023-08-11T03:59:56.472Z,99775.53
2023-08-11T04:01:29.452Z,99777.16
2023-08-11T04:03:02.850Z,99779.16
2023-08-11T04:04:35.239Z,99768.94
2023-08-11T04:06:08.629Z,99776.84
2023-08-11T04:07:41.014Z,99779.06
2023-08-11T04:09:15.523Z,99778.84
2023-08-11T04:10:48.861Z,99775.56
2023-08-11T04:12:21.274Z,99780.25
2023-08-11T04:13:55.090Z,99784.31
2023-08-11T04:15:28.670Z,99779.78
2023-08-11T04:17:01.945Z,99779.56
2023-08-11T04:18:34.340Z,99784.81
2023-08-11T04:20:14.302Z,99784.16
2023-08-11T04:21:47.029Z,99787.78
2023-08-11T04:23:20.648Z,99794.44
2023-08-11T04:24:53.030Z,99794.38
2023-08-11T04:26:26.406Z,99794.31
2023-08-11T04:28:00.880Z,99793.47
2023-08-11T04:29:34.728Z,99796.88
2023-08-11T04:31:10.931Z,99804.16
2023-08-11T04:32:45.645Z,99799.06
2023-08-11T04:34:18.495Z,99795.41
2023-08-11T04:35:52.782Z,99795.59
2023-08-11T04:37:25.312Z,99796.88
2023-08-11T04:38:58.536Z,99803.44
2023-08-11T04:40:32.908Z,99797.97
2023-08-11T04:42:05.712Z,99803.63
2023-08-11T04:43:39.509Z,99813.66
2023-08-11T04:45:12.383Z,99807.97
2023-08-11T04:46:48.805Z,99809.22
2023-08-11T04:48:22.536Z,99807.38
2023-08-11T04:49:59.146Z,99801.44
2023-08-11T04:51:33.263Z,99802.19
2023-08-11T04:53:05.711Z,99804.03
2023-08-11T04:54:39.052Z,99795.31
2023-08-11T04:56:11.367Z,99808.69
2023-08-11T04:57:44.921Z,99808.81
2023-08-11T04:59:17.513Z,99814.75
2023-08-11T05:00:50.830Z,99816.34
2023-08-11T05:02:24.639Z,99814.28
2023-08-11T05:03:57.919Z,99811.56
2023-08-11T05:05:30.202Z,99820.28
2023-08-11T05:07:04.421Z,99813.75
2023-08-11T05:08:38.239Z,99814.50
2023-08-11T05:10:12.001Z,99811.97
2023-08-11T05:11:44.565Z,99814.34
2023-08-11T05:13:17.804Z,99819.94
2023-08-11T05:14:50.234Z,99812.72
2023-08-11T05:16:23.608Z,99814.47
2023-08-11T05:17:57.540Z,99818.84
2023-08-11T05:19:30.854Z,99819.44
2023-08-11T05:21:06.887Z,99812.97
2023-08-11T05:22:40.038Z,99816.13
2023-08-11T05:24:12.368Z,99822.88
2023-08-11T05:25:45.688Z,99819.53
2023-08-11T05:27:18.016Z,99821.22
2023-08-11T05:28:51.601Z,99820.50
2023-08-11T05:30:28.989Z,99810.38
2023-08-11T05:32:01.325Z,99815.41
2023-08-11T05:33:36.064Z,99809.81
2023-08-11T05:35:09.736Z,99817.78
2023-08-11T05:36:43.168Z,99811.13
2023-08-11T05:38:15.605Z,99807.56
2023-08-11T05:39:49.260Z,99810.28
2023-08-11T05:41:21.562Z,99813.44
2023-08-11T05:42:54.852Z,99819.06
2023-08-11T05:44:27.056Z,99813.50
2023-08-11T05:46:00.696Z,99814.50
2023-08-11T05:47:33.016Z,99810.88
2023-08-11T05:49:07.675Z,99814.00
2023-08-11T05:50:41.427Z,99810.69
2023-08-11T05:52:13.820Z,99814.16
2023-08-11T05:53:51.764Z,99807.97
2023-08-11T05:55:26.391Z,99811.59
2023-08-11T05:56:59.764Z,99813.09
2023-08-11T05:58:32.336Z,99804.00
2023-08-11T06:00:06.802Z,99821.06
2023-08-11T06:01:45.596Z,99815.97
2023-08-11T06:03:19.037Z,99818.53
2023-08-11T06:04:54.784Z,99816.03
2023-08-11T06:06:27.844Z,99811.56
2023-08-11T06:08:06.668Z,99825.69
2023-08-11T06:09:39.304Z,99824.53
2023-08-11T06:11:12.670Z,99820.97
2023-08-11T06:12:44.816Z,99817.50
2023-08-11T06:14:18.052Z,99807.88
2023-08-11T06:15:50.573Z,99806.69
2023-08-11T06:17:23.885Z,99818.13
2023-08-11T06:18:56.922Z,99813.03
2023-08-11T06:20:40.819Z,99809.06
2023-08-11T06:22:15.166Z,99806.84
2023-08-11T06:23:48.531Z,99816.69
2023-08-11T06:25:21.973Z,99808.91
2023-08-11T06:26:54.768Z,99804.19
2023-08-11T06:28:27.998Z,99808.75
2023-08-11T06:30:00.312Z,99814.38
2023-08-11T06:31:33.599Z,99811.25
2023-08-11T06:33:06.183Z,99813.97
2023-08-11T06:34:39.747Z,99814.56
2023-08-11T06:36:14.619Z,99810.81
2023-08-11T06:37:46.915Z,99810.75
2023-08-11T06:39:20.332Z,99809.34
2023-08-11T06:40:53.102Z,99806.47
2023-08-11T06:42:26.454Z,99800.59
2023-08-11T06:44:09.688Z,99801.22
2023-08-11T06:45:46.263Z,99814.97
2023-08-11T06:47:19.748Z,99806.63
2023-08-11T06:48:52.163Z,99822.16
2023-08-11T06:50:25.540Z,99817.13
2023-08-11T06:51:59.123Z,99812.38
2023-08-11T06:53:32.360Z,99797.25
2023-08-11T06:55:06.245Z,99804.69
2023-08-11T06:56:39.451Z,99799.78
2023-08-11T06:58:11.907Z,99798.81
2023-08-11T06:59:45.278Z,99811.38
2023-08-11T07:01:19.402Z,99804.84
2023-08-11T07:02:52.829Z,99812.16
2023-08-11T07:04:26.443Z,99819.28
2023-08-11T07:05:59.701Z,99817.56
2023-08-11T07:07:33.331Z,99812.84
2023-08-11T07:09:07.193Z,99814.16
2023-08-11T07:10:40.673Z,99816.31
2023-08-11T07:12:14.058Z,99818.00
2023-08-11T07:13:46.535Z,99813.81
2023-08-11T07:15:19.921Z,99816.81
2023-08-11T07:16:52.391Z,99815.91
2023-08-11T07:18:25.693Z,99821.78
2023-08-11T07:19:58.094Z,99812.75
2023-08-11T07:21:31.337Z,99817.72
2023-08-11T07:23:05.051Z,99817.63
2023-08-11T07:24:38.314Z,99822.03
2023-08-11T07:26:10.738Z,99815.19
2023-08-11T07:27:43.992Z,99817.41
2023-08-11T07:29:16.371Z,99818.50
2023-08-11T07:30:49.571Z,99822.19
2023-08-11T07:32:21.844Z,99815.66
2023-08-11T07:33:55.037Z,99807.69
2023-08-11T07:35:27.556Z,99815.38
2023-08-11T07:37:00.787Z,99825.13
2023-08-11T07:38:34.499Z,99822.38
2023-08-11T07:40:09.117Z,99830.41
2023-08-11T07:41:42.500Z,99822.59
2023-08-11T07:43:15.801Z,99826.69
2023-08-11T07:44:48.112Z,99825.28
2023-08-11T07:46:21.964Z,99819.25
2023-08-11T07:47:54.368Z,99812.63
2023-08-11T07:49:27.701Z,99823.25
2023-08-11T07:51:00.162Z,99811.66
2023-08-11T07:52:33.452Z,99812.84
2023-08-11T07:54:07.187Z,99811.53
2023-08-11T07:55:42.128Z,99814.44
2023-08-11T07:57:17.533Z,99812.38
2023-08-11T07:58:54.117Z,99812.81
2023-08-11T08:00:27.364Z,99811.69
2023-08-11T08:02:00.823Z,99813.41
2023-08-11T08:03:34.432Z,99812.31
2023-08-11T08:05:12.798Z,99809.34
2023-08-11T08:06:47.466Z,99800.22
2023-08-11T08:08:19.725Z,99803.53
2023-08-11T08:09:54.490Z,99800.53
2023-08-11T08:11:27.462Z,99807.63
2023-08-11T08:13:00.899Z,99804.75
2023-08-11T08:14:33.138Z,99801.59
2023-08-11T08:16:07.200Z,99796.00
2023-08-11T08:17:39.889Z,99802.13
2023-08-11T08:19:14.044Z,99794.72
2023-08-11T08:20:46.319Z,99804.34
2023-08-11T08:22:19.740Z,99801.84
2023-08-11T08:23:51.996Z,99794.50
2023-08-11T08:25:26.897Z,99793.81
2023-08-11T08:26:59.141Z,99794.44
2023-08-11T08:28:34.420Z,99795.41
2023-08-11T08:30:09.211Z,99795.25
2023-08-11T08:31:42.927Z,99787.28
2023-08-11T08:33:16.235Z,99786.38
2023-08-11T08:34:50.129Z,99786.78
2023-08-11T08:36:23.689Z,99793.09
2023-08-11T08:37:56.268Z,99787.56
2023-08-11T08:39:29.649Z,99784.66
2023-08-11T08:41:04.796Z,99788.88
2023-08-11T08:42:37.451Z,99793.19
2023-08-11T08:44:10.999Z,99784.69
2023-08-11T08:45:44.893Z,99787.59
2023-08-11T08:47:19.563Z,99776.94
2023-08-11T08:48:59.205Z,99784.50
2023-08-11T08:50:32.779Z,99786.88
2023-08-11T08:52:06.263Z,99781.47
2023-08-11T08:53:39.952Z,99776.47
2023-08-11T08:55:12.960Z,99774.25
2023-08-11T08:56:48.343Z,99783.84
2023-08-11T08:58:21.584Z,99785.00
2023-08-11T08:59:54.994Z,99771.78
2023-08-11T09:01:27.859Z,99780.28
2023-08-11T09:03:02.703Z,99779.75
2023-08-11T09:04:35.872Z,99785.47
2023-08-11T09:06:10.481Z,99782.41
2023-08-11T09:07:42.950Z,99777.94
2023-08-11T09:09:16.585Z,99782.19
2023-08-11T09:10:48.889Z,99775.25
2023-08-11T09:12:27.343Z,99777.78
2023-08-11T09:14:03.997Z,99771.38
2023-08-11T09:15:38.354Z,99767.38
2023-08-11T09:17:12.559Z,99787.91
2023-08-11T09:18:47.137Z,99783.34
2023-08-11T09:20:21.239Z,99780.97
2023-08-11T09:21:54.328Z,99774.31
2023-08-11T09:23:27.503Z,99786.75
2023-08-11T09:25:01.071Z,99785.25
2023-08-11T09:26:33.255Z,99780.91
2023-08-11T09:28:08.064Z,99787.25
2023-08-11T09:29:40.223Z,99792.81
2023-08-11T09:31:14.712Z,99791.06
2023-08-11T09:32:50.457Z,99789.75
2023-08-11T09:34:23.835Z,99792.16
2023-08-11T09:35:57.099Z,99800.25
2023-08-11T09:37:29.538Z,99788.41
2023-08-11T09:39:08.363Z,99792.44
2023-08-11T09:40:42.234Z,99793.53
2023-08-11T09:42:17.580Z,99789.78
2023-08-11T09:43:51.641Z,99793.81
2023-08-11T09:45:26.050Z,99791.97
2023-08-11T09:46:59.767Z,99789.56
2023-08-11T09:48:32.833Z,99784.75
2023-08-11T09:50:06.665Z,99785.53
2023-08-11T09:51:40.431Z,99787.41
2023-08-11T09:53:14.063Z,99783.84
2023-08-11T09:54:50.298Z,99791.16
2023-08-11T09:56:25.020Z,99778.16
2023-08-11T09:57:58.887Z,99782.16
2023-08-11T09:59:33.787Z,99786.34
2023-08-11T10:01:20.328Z,99781.94
2023-08-11T10:03:01.880Z,99784.06
2023-08-11T10:04:39.289Z,99762.56
2023-08-11T10:06:17.821Z,99775.22
2023-08-11T10:07:55.320Z,99778.56
2023-08-11T10:09:30.512Z,99773.16
2023-08-11T10:11:05.283Z,99781.91
2023-08-11T10:12:41.559Z,99774.00
2023-08-11T10:14:20.774Z,99782.72
2023-08-11T10:15:57.297Z,99783.25
2023-08-11T10:17:30.141Z,99771.06
2023-08-11T10:19:03.925Z,99775.44
2023-08-11T10:20:36.939Z,99775.31
2023-08-11T10:22:11.154Z,99767.59
2023-08-11T10:23:44.325Z,99769.50
2023-08-11T10:25:18.286Z,99765.03
2023-08-11T10:26:52.406Z,99768.19
2023-08-11T10:28:24.973Z,99768.44
2023-08-11T10:29:59.885Z,99764.91
2023-08-11T10:31:34.489Z,99758.22
2023-08-11T10:33:10.696Z,99759.88
2023-08-11T10:34:43.421Z,99759.84
2023-08-11T10:36:18.760Z,99765.97
2023-08-11T10:37:58.910Z,99747.25
2023-08-11T10:39:32.166Z,99755.00
2023-08-11T10:41:06.397Z,99751.63
2023-08-11T10:42:41.506Z,99749.75
2023-08-11T10:44:17.709Z,99742.63
2023-08-11T10:45:51.392Z,99742.16
2023-08-11T10:47:26.110Z,99739.50
2023-08-11T10:49:00.285Z,99735.13
2023-08-11T10:50:34.029Z,99740.03
2023-08-11T10:52:07.114Z,99746.94
2023-08-11T10:53:42.241Z,99741.56
2023-08-11T10:55:16.470Z,99749.41
2023-08-11T10:56:50.051Z,99737.81
2023-08-11T10:58:25.210Z,99743.19
2023-08-11T10:59:59.068Z,99738.66
2023-08-11T11:01:31.457Z,99743.59
2023-08-11T11:03:07.831Z,99739.28
2023-08-11T11:04:45.350Z,99738.47
2023-08-11T11:06:17.721Z,99735.59
2023-08-11T11:07:53.378Z,99738.53
2023-08-11T11:09:26.603Z,99733.41
2023-08-11T11:10:58.953Z,99739.81
2023-08-11T11:12:34.068Z,99740.28
2023-08-11T11:14:07.552Z,99741.34
2023-08-11T11:15:40.841Z,99729.91
2023-08-11T11:17:13.108Z,99730.09
2023-08-11T11:18:49.819Z,99735.44
2023-08-11T11:20:23.859Z,99734.63
2023-08-11T11:21:56.338Z,99723.28
2023-08-11T11:23:29.605Z,99724.84
2023-08-11T11:25:04.608Z,99730.28
2023-08-11T11:26:37.125Z,99730.53
2023-08-11T11:28:13.150Z,99727.53
2023-08-11T11:29:46.413Z,99726.97
2023-08-11T11:31:20.230Z,99735.28
2023-08-11T11:32:53.489Z,99731.03
2023-08-11T11:34:27.128Z,99728.69
2023-08-11T11:39:51.139Z,99720.59
2023-08-11T11:41:24.551Z,99722.97
2023-08-11T11:42:58.483Z,99717.75
2023-08-11T11:44:30.840Z,99714.69
2023-08-11T11:46:04.425Z,99722.50
2023-08-11T11:47:38.156Z,99724.78
2023-08-11T11:49:23.715Z,99722.75
2023-08-11T11:51:04.507Z,99710.81
2023-08-11T11:52:39.344Z,99713.84
2023-08-11T11:54:11.600Z,99714.97
2023-08-11T11:55:46.242Z,99705.25
2023-08-11T11:57:18.640Z,99714.31
2023-08-11T11:58:52.356Z,99714.56
2023-08-11T12:00:26.671Z,99717.84
2023-08-11T12:02:01.913Z,99715.50
2023-08-11T12:03:34.573Z,99717.56
2023-08-11T12:05:09.466Z,99715.66
2023-08-11T12:06:43.516Z,99717.25
2023-08-11T12:08:22.218Z,99711.66
2023-08-11T12:09:54.987Z,99713.47
2023-08-11T12:11:31.951Z,99714.59
2023-08-11T12:13:04.533Z,99717.88
2023-08-11T12:14:37.744Z,99709.34
2023-08-11T12:16:11.612Z,99712.84
2023-08-11T12:17:50.219Z,99712.31
2023-08-11T12:19:24.133Z,99707.56
2023-08-11T12:21:00.117Z,99701.16
2023-08-11T12:22:33.708Z,99706.09
2023-08-11T12:24:10.646Z,99699.13
2023-08-11T12:25:42.996Z,99699.13
2023-08-11T12:27:16.299Z,99698.00
2023-08-11T12:28:49.478Z,99697.47
2023-08-11T12:30:22.845Z,99694.16
2023-08-11T12:31:56.059Z,99698.00
2023-08-11T12:33:28.893Z,99693.94
2023-08-11T12:35:02.153Z,99691.38
2023-08-11T12:36:35.572Z,99686.56
2023-08-11T12:38:13.468Z,99685.81
2023-08-11T12:39:46.675Z,99689.75
2023-08-11T12:41:20.120Z,99695.69
2023-08-11T12:42:53.260Z,99689.25
2023-08-11T12:44:26.531Z,99693.41
2023-08-11T12:45:58.836Z,99683.72
2023-08-11T12:47:32.134Z,99674.28
2023-08-11T12:49:05.732Z,99672.63
2023-08-11T12:50:38.450Z,99677.50
2023-08-11T12:52:11.844Z,99675.91
2023-08-11T12:53:46.653Z,99676.06
2023-08-11T12:55:18.986Z,99676.56
2023-08-11T12:56:52.203Z,99669.03
2023-08-11T12:58:25.469Z,99658.81
2023-08-11T12:59:57.707Z,99669.66
2023-08-11T13:01:31.034Z,99666.06
2023-08-11T13:03:03.707Z,99671.09
2023-08-11T13:04:37.265Z,99661.97
2023-08-11T13:06:10.525Z,99673.91
2023-08-11T13:07:42.904Z,99679.81
2023-08-11T13:09:17.461Z,99673.59
2023-08-11T13:10:50.783Z,99666.63
2023-08-11T13:12:22.960Z,99675.59
2023-08-11T13:13:56.255Z,99670.28
2023-08-11T13:15:29.737Z,99676.25
2023-08-11T13:17:01.893Z,99680.22
2023-08-11T13:18:35.107Z,99682.03
2023-08-11T13:20:11.076Z,99671.16
2023-08-11T13:21:44.546Z,99673.94
2023-08-11T13:23:17.760Z,99671.16
2023-08-11T13:24:51.425Z,99669.84
2023-08-11T13:26:24.728Z,99673.78
2023-08-11T13:27:58.245Z,99676.19
2023-08-11T13:29:30.590Z,99671.00
2023-08-11T13:31:03.960Z,99671.78
2023-08-11T13:32:37.797Z,99673.44
2023-08-11T13:34:10.180Z,99675.16
2023-08-11T13:35:43.448Z,99669.09
2023-08-11T13:37:17.019Z,99671.56
2023-08-11T13:38:49.313Z,99672.28
2023-08-11T13:40:24.952Z,99667.44
2023-08-11T13:41:58.144Z,99667.81
2023-08-11T13:43:30.362Z,99668.59
2023-08-11T13:45:03.796Z,99662.97
2023-08-11T13:46:36.208Z,99667.38
2023-08-11T13:48:09.804Z,99672.63
2023-08-11T13:49:43.064Z,99664.59
2023-08-11T13:51:15.397Z,99670.28
2023-08-11T13:52:48.810Z,99665.66
2023-08-11T13:54:21.074Z,99665.66
2023-08-11T13:55:55.665Z,99669.03
2023-08-11T13:57:28.351Z,99671.81
2023-08-11T13:59:02.753Z,99674.00
2023-08-11T14:00:34.931Z,99658.47
2023-08-11T14:02:08.263Z,99674.81
2023-08-11T14:03:40.847Z,99668.03
2023-08-11T14:05:14.457Z,99667.81
2023-08-11T14:06:47.728Z,99671.91
2023-08-11T14:08:20.854Z,99668.69
2023-08-11T14:09:54.294Z,99663.31
2023-08-11T14:11:27.978Z,99666.88
2023-08-11T14:13:01.192Z,99664.16
2023-08-11T14:14:33.622Z,99665.56
2023-08-11T14:16:07.070Z,99667.44
2023-08-11T14:17:40.447Z,99657.56
2023-08-11T14:19:12.727Z,99662.16
2023-08-11T14:20:45.994Z,99659.88
2023-08-11T14:22:19.810Z,99675.03
2023-08-11T14:23:52.188Z,99666.19
2023-08-11T14:25:25.573Z,99671.50
2023-08-11T14:26:59.187Z,99666.97
2023-08-11T14:28:32.583Z,99662.72
2023-08-11T14:30:05.969Z,99662.22
2023-08-11T14:31:39.185Z,99673.50
2023-08-11T14:33:11.550Z,99668.97
2023-08-11T14:34:45.075Z,99664.19
2023-08-11T14:36:18.483Z,99675.50
2023-08-11T14:37:50.696Z,99668.25
2023-08-11T14:39:23.916Z,99665.03
2023-08-11T14:40:56.136Z,99670.94
2023-08-11T14:42:30.971Z,99671.97
2023-08-11T14:44:04.615Z,99660.16
2023-08-11T14:45:36.757Z,99672.53
2023-08-11T14:47:14.544Z,99669.91
2023-08-11T14:48:47.613Z,99676.38
2023-08-11T14:50:21.505Z,99674.78
2023-08-11T14:51:55.092Z,99672.09
2023-08-11T14:53:30.563Z,99671.94
2023-08-11T14:55:02.991Z,99671.78
2023-08-11T14:56:36.193Z,99665.75
2023-08-11T14:58:10.456Z,99679.53
2023-08-11T14:59:44.258Z,99675.72
2023-08-11T15:01:17.437Z,99670.09
2023-08-11T15:02:50.794Z,99677.06
2023-08-11T15:04:24.050Z,99667.94
2023-08-11T15:05:56.500Z,99673.03
2023-08-11T15:07:29.867Z,99670.34
2023-08-11T15:09:03.935Z,99671.97
2023-08-11T15:10:36.919Z,99670.34
2023-08-11T15:12:10.835Z,99673.09
2023-08-11T15:13:44.673Z,99673.09
2023-08-11T15:15:17.872Z,99671.50
2023-08-11T15:16:51.261Z,99663.41
2023-08-11T15:18:25.589Z,99674.03
2023-08-11T15:19:59.032Z,99672.94
2023-08-11T15:21:31.256Z,99673.97
2023-08-11T15:23:04.698Z,99665.38
2023-08-11T15:24:36.949Z,99663.44
2023-08-11T15:26:11.033Z,99669.59
2023-08-11T15:27:43.779Z,99670.09
2023-08-11T15:29:18.424Z,99672.09
2023-08-11T15:30:53.151Z,99674.66
2023-08-11T15:32:26.018Z,99669.25
2023-08-11T15:33:59.246Z,99666.34
2023-08-11T15:35:31.531Z,99668.19
2023-08-11T15:37:04.892Z,99667.59
2023-08-11T15:38:37.385Z,99671.56
2023-08-11T15:40:11.626Z,99671.22
2023-08-11T15:41:43.913Z,99666.84
2023-08-11T15:43:17.189Z,99672.19
2023-08-11T15:44:51.129Z,99671.59
2023-08-11T15:46:24.627Z,99675.59
2023-08-11T15:47:56.907Z,99672.91
2023-08-11T15:49:30.375Z,99666.72
2023-08-11T15:51:03.662Z,99676.94
2023-08-11T15:52:36.515Z,99664.81
2023-08-11T15:54:10.071Z,99667.09
2023-08-11T15:55:42.445Z,99671.41
2023-08-11T15:57:15.816Z,99667.63
2023-08-11T15:58:48.049Z,99666.31
2023-08-11T16:00:22.722Z,99675.19
2023-08-11T16:02:14.849Z,99666.91
2023-08-11T16:03:48.884Z,99663.91
2023-08-11T16:05:21.109Z,99671.47
2023-08-11T16:06:55.557Z,99675.84
2023-08-11T16:08:28.085Z,99678.59
2023-08-11T16:10:01.428Z,99674.81
2023-08-11T16:11:35.032Z,99674.59
2023-08-11T16:13:10.729Z,99677.59
2023-08-11T16:14:43.435Z,99672.75
2023-08-11T16:16:18.150Z,99672.81
2023-08-11T16:17:53.431Z,99669.09
2023-08-11T16:19:26.799Z,99671.44
2023-08-11T16:20:59.347Z,99679.84
2023-08-11T16:22:34.887Z,99680.22
2023-08-11T16:24:07.225Z,99672.16
2023-08-11T16:25:40.452Z,99678.69
2023-08-11T16:27:12.632Z,99682.56
2023-08-11T16:28:46.201Z,99676.41
2023-08-11T16:30:18.516Z,99675.72
2023-08-11T16:31:53.279Z,99672.59
2023-08-11T16:33:25.939Z,99670.53
2023-08-11T16:35:00.292Z,99689.66
2023-08-11T16:36:32.447Z,99687.81
2023-08-11T16:38:06.474Z,99686.81
2023-08-11T16:39:39.230Z,99684.69
2023-08-11T16:41:14.515Z,99689.03
2023-08-11T16:42:46.725Z,99675.69
2023-08-11T16:44:19.981Z,99696.38
2023-08-11T16:45:52.356Z,99689.69
2023-08-11T16:47:29.027Z,99689.41
2023-08-11T16:49:02.470Z,99688.66
2023-08-11T16:50:34.705Z,99687.63
2023-08-11T16:52:08.569Z,99682.28
2023-08-11T16:53:41.009Z,99698.38
2023-08-11T16:55:14.250Z,99692.78
2023-08-11T16:56:46.421Z,99701.16
2023-08-11T16:58:19.829Z,99695.78
2023-08-11T16:59:52.141Z,99701.97
2023-08-11T17:01:25.290Z,99705.75
2023-08-11T17:02:59.205Z,99697.72
2023-08-11T17:04:32.548Z,99708.19
2023-08-11T17:06:05.186Z,99707.13
2023-08-11T17:07:38.443Z,99708.47
2023-08-11T17:09:11.056Z,99708.75
2023-08-11T17:10:44.419Z,99708.22
2023-08-11T17:12:17.762Z,99712.53
2023-08-11T17:13:50.120Z,99713.34
2023-08-11T17:15:24.186Z,99716.28
2023-08-11T17:16:56.550Z,99712.53
2023-08-11T17:18:31.168Z,99702.34
2023-08-11T17:20:05.150Z,99718.41
2023-08-11T17:21:38.401Z,99722.69
2023-08-11T17:23:10.816Z,99715.72
2023-08-11T17:24:43.973Z,99722.97
2023-08-11T17:26:17.315Z,99721.06
2023-08-11T17:27:49.627Z,99723.72
2023-08-11T17:29:23.055Z,99726.91
2023-08-11T17:30:57.121Z,99726.03
2023-08-11T17:32:31.430Z,99728.44
2023-08-11T17:34:05.319Z,99728.94
2023-08-11T17:35:40.519Z,99734.28
2023-08-11T17:37:12.674Z,99727.25
2023-08-11T17:38:45.916Z,99743.38
2023-08-11T17:40:18.219Z,99742.25
2023-08-11T17:42:03.262Z,99736.06
2023-08-11T17:43:35.575Z,99725.00
2023-08-11T17:45:10.249Z,99745.91
2023-08-11T17:46:42.540Z,99742.09
2023-08-11T17:48:16.230Z,99744.75
2023-08-11T17:49:52.832Z,99756.47
2023-08-11T17:51:25.443Z,99753.72
2023-08-11T17:52:58.704Z,99755.81
2023-08-11T17:54:32.024Z,99750.38
2023-08-11T17:56:04.668Z,99759.38
2023-08-11T17:57:37.894Z,99754.50
2023-08-11T17:59:10.059Z,99765.16
2023-08-11T18:00:43.485Z,99764.59
2023-08-11T18:02:15.656Z,99764.44
2023-08-11T18:03:49.079Z,99765.19
2023-08-11T18:05:23.677Z,99772.88
2023-08-11T18:06:57.022Z,99775.25
2023-08-11T18:08:29.438Z,99774.38
2023-08-11T18:10:02.818Z,99781.50
2023-08-11T18:11:36.579Z,99781.63
2023-08-11T18:13:10.010Z,99783.38
2023-08-11T18:14:54.696Z,99775.53
2023-08-11T18:16:28.235Z,99785.16
2023-08-11T18:18:01.773Z,99785.13
2023-08-11T18:19:34.010Z,99782.63
2023-08-11T18:21:19.192Z,99782.78
2023-08-11T18:22:54.018Z,99781.03
2023-08-11T18:24:26.203Z,99786.22
2023-08-11T18:25:59.589Z,99788.75
2023-08-11T18:27:33.683Z,99799.09